createdAt,value
2022-09-15T00:04:32.494Z,18.07
2022-09-15T00:19:48.466Z,18.06
2022-09-15T00:35:05.442Z,18.05
2022-09-15T00:50:22.437Z,17.59
2022-09-15T01:05:39.376Z,17.61
2022-09-15T01:20:55.377Z,17.56
2022-09-15T01:36:12.320Z,17.47
2022-09-15T01:51:28.319Z,17.42
2022-09-15T02:06:44.287Z,17.27
2022-09-15T02:22:00.279Z,17.26
2022-09-15T02:37:17.196Z,17.31
2022-09-15T02:52:34.210Z,17.25
2022-09-15T03:07:51.173Z,17.29
2022-09-15T03:23:07.150Z,17.25
2022-09-15T03:38:24.075Z,17.07
2022-09-15T03:53:40.325Z,16.95
2022-09-15T04:08:56.055Z,16.78
2022-09-15T04:24:13.024Z,16.66
2022-09-15T04:39:30.964Z,16.61
2022-09-15T04:54:47.966Z,16.5
2022-09-15T05:10:03.941Z,16.41
2022-09-15T05:25:19.874Z,16.29
2022-09-15T05:40:36.897Z,16.23
2022-09-15T05:55:52.821Z,16.41
2022-09-15T06:11:08.823Z,16.89
2022-09-15T06:26:25.769Z,17.03
2022-09-15T06:42:01.311Z,17.16
2022-09-15T06:57:00.698Z,17.37
2022-09-15T07:12:16.715Z,17.54
2022-09-15T07:27:32.640Z,17.92
2022-09-15T07:42:50.646Z,18.03
2022-09-15T07:58:06.594Z,18.24
2022-09-15T08:13:22.582Z,18.55
2022-09-15T08:28:39.521Z,19.02
2022-09-15T08:43:57.528Z,19.79
2022-09-15T08:59:13.468Z,20.55
2022-09-15T09:14:29.458Z,20.7
2022-09-15T09:29:45.407Z,20.37
2022-09-15T09:45:02.364Z,20.59
2022-09-15T10:00:18.372Z,20.36
2022-09-15T10:15:35.299Z,21.9
2022-09-15T10:30:52.294Z,23.9
2022-09-15T10:46:09.256Z,24.5
2022-09-15T11:01:25.331Z,24.18
2022-09-15T11:16:41.275Z,24.33
2022-09-15T11:31:57.308Z,25.93
2022-09-15T11:47:14.098Z,25.68
2022-09-15T12:02:30.206Z,27.05
2022-09-15T12:17:47.036Z,26.97
2022-09-15T12:33:00.123Z,27.07
2022-09-15T12:48:16.009Z,26.52
2022-09-15T13:03:31.975Z,25.68
2022-09-15T13:18:47.905Z,27.36
2022-09-15T13:49:21.849Z,25.71
2022-09-15T14:04:38.807Z,25.4
2022-09-15T14:19:54.811Z,27.5
2022-09-15T14:35:14.901Z,27.47
2022-09-15T14:50:31.870Z,26.61
2022-09-15T15:05:43.684Z,25.49
2022-09-15T15:06:29.702Z,25.49
2022-09-15T15:21:00.682Z,25.65
2022-09-15T15:36:17.615Z,25.53
2022-09-15T15:51:33.611Z,25.52
2022-09-15T16:06:50.584Z,25.61
2022-09-15T16:22:07.544Z,25.08
2022-09-15T16:37:24.518Z,24.18
2022-09-15T16:52:40.489Z,20.54
2022-09-15T17:07:56.464Z,20.33
2022-09-15T17:23:12.432Z,19.25
2022-09-15T17:38:29.415Z,18.93
2022-09-15T17:53:45.416Z,18.67
2022-09-15T18:09:02.342Z,18.51
2022-09-15T18:24:19.309Z,18.66
2022-09-15T18:39:36.285Z,18.63
2022-09-15T18:54:52.210Z,18.65
2022-09-15T19:10:08.218Z,18.74
2022-09-15T19:25:24.156Z,18.56
2022-09-15T19:40:41.155Z,18.56
2022-09-15T19:55:58.104Z,18.49
2022-09-15T20:11:15.094Z,18.21
2022-09-15T20:26:32.040Z,18.09
2022-09-15T20:41:50.036Z,18.14
2022-09-15T20:57:05.973Z,18.18
2022-09-15T21:12:22.991Z,18.07
2022-09-15T21:27:39.919Z,17.98
2022-09-15T21:42:57.935Z,17.92
2022-09-15T21:58:13.868Z,17.86
2022-09-15T22:13:29.878Z,17.94
2022-09-15T22:28:45.804Z,17.87
2022-09-15T22:44:02.800Z,17.9
2022-09-15T22:59:18.749Z,17.87
2022-09-15T23:14:35.757Z,17.7
2022-09-15T23:29:52.720Z,17.61
2022-09-15T23:45:09.656Z,17.43
